createdAt,value
2019-06-08T00:00:01.990Z,16.90
2019-06-08T00:01:03.512Z,16.87
2019-06-08T00:02:01.802Z,16.86
2019-06-08T00:03:01.954Z,16.86
2019-06-08T00:04:01.504Z,16.85
2019-06-08T00:05:01.604Z,16.85
2019-06-08T00:06:01.449Z,16.84
2019-06-08T00:07:01.686Z,16.83
2019-06-08T00:08:01.552Z,16.82
2019-06-08T00:09:01.505Z,16.82
2019-06-08T00:10:01.557Z,16.79
2019-06-08T00:11:01.462Z,16.80
2019-06-08T00:12:01.434Z,16.80
2019-06-08T00:13:01.454Z,16.81
2019-06-08T00:14:01.418Z,16.81
2019-06-08T00:15:01.348Z,16.81
2019-06-08T00:16:01.384Z,16.79
2019-06-08T00:17:01.467Z,16.78
2019-06-08T00:18:01.348Z,16.76
2019-06-08T00:19:01.378Z,16.75
2019-06-08T00:20:01.282Z,16.74
2019-06-08T00:21:01.254Z,16.71
2019-06-08T00:22:01.394Z,16.71
2019-06-08T00:23:01.255Z,16.67
2019-06-08T00:24:01.277Z,16.66
2019-06-08T00:25:01.299Z,16.64
2019-06-08T00:26:01.199Z,16.62
2019-06-08T00:27:01.211Z,16.61
2019-06-08T00:28:01.185Z,16.60
2019-06-08T00:29:01.170Z,16.59
2019-06-08T00:30:01.270Z,16.59
2019-06-08T00:31:01.149Z,16.59
2019-06-08T00:32:01.133Z,16.58
2019-06-08T00:33:01.144Z,16.60
2019-06-08T00:34:01.223Z,16.61
2019-06-08T00:35:01.169Z,16.63
2019-06-08T00:36:01.110Z,16.63
2019-06-08T00:37:02.132Z,16.63
2019-06-08T00:38:01.200Z,16.63
2019-06-08T00:39:01.408Z,16.62
2019-06-08T00:40:01.057Z,16.60
2019-06-08T00:41:01.045Z,16.60
2019-06-08T00:42:02.405Z,16.59
2019-06-08T00:43:01.017Z,16.58
2019-06-08T00:44:01.017Z,16.57
2019-06-08T00:45:00.988Z,16.57
2019-06-08T00:46:00.984Z,16.56
2019-06-08T00:47:00.986Z,16.54
2019-06-08T00:48:00.953Z,16.53
2019-06-08T00:49:00.966Z,16.52
2019-06-08T00:50:00.955Z,16.52
2019-06-08T00:51:01.082Z,16.53
2019-06-08T00:52:00.917Z,16.52
2019-06-08T00:53:00.914Z,16.52
2019-06-08T00:54:00.916Z,16.50
2019-06-08T00:55:01.027Z,16.49
2019-06-08T00:56:00.863Z,16.48
2019-06-08T00:57:00.994Z,16.47
2019-06-08T00:58:00.885Z,16.47
2019-06-08T00:59:01.526Z,16.45
2019-06-08T01:00:09.753Z,16.42
2019-06-08T01:01:01.940Z,16.41
2019-06-08T01:02:00.829Z,16.40
2019-06-08T01:03:01.542Z,16.37
2019-06-08T01:04:00.818Z,16.35
2019-06-08T01:05:00.795Z,16.33
2019-06-08T01:06:01.365Z,16.34
2019-06-08T01:07:00.913Z,16.32
2019-06-08T01:08:01.589Z,16.32
2019-06-08T01:09:00.763Z,16.33
2019-06-08T01:10:00.702Z,16.32
2019-06-08T01:11:00.768Z,16.30
2019-06-08T01:12:01.686Z,16.30
2019-06-08T01:13:02.754Z,16.29
2019-06-08T01:14:00.814Z,16.28
2019-06-08T01:15:04.124Z,16.26
2019-06-08T01:16:00.763Z,16.26
2019-06-08T01:17:00.725Z,16.25
2019-06-08T01:18:03.723Z,16.22
2019-06-08T01:19:00.627Z,16.21
2019-06-08T01:20:00.757Z,16.20
2019-06-08T01:21:00.650Z,16.18
2019-06-08T01:22:00.573Z,16.17
2019-06-08T01:23:00.598Z,16.16
2019-06-08T01:24:00.592Z,16.16
2019-06-08T01:25:00.572Z,16.18
2019-06-08T01:26:00.546Z,16.19
2019-06-08T01:27:00.658Z,16.19
2019-06-08T01:28:01.463Z,16.20
2019-06-08T01:29:00.526Z,16.20
2019-06-08T01:30:00.543Z,16.19
2019-06-08T01:31:00.494Z,16.19
2019-06-08T01:32:00.483Z,16.16
2019-06-08T01:33:00.474Z,16.15
2019-06-08T01:34:00.503Z,16.15
2019-06-08T01:35:00.433Z,16.13
2019-06-08T01:36:00.476Z,16.12
2019-06-08T01:37:00.415Z,16.12
2019-06-08T01:38:00.429Z,16.11
2019-06-08T01:39:00.392Z,16.09
2019-06-08T01:40:00.446Z,16.09
2019-06-08T01:41:00.436Z,16.09
2019-06-08T01:42:01.208Z,16.07
2019-06-08T01:43:00.398Z,16.06
2019-06-08T01:44:01.089Z,16.06
2019-06-08T01:45:00.369Z,16.04
2019-06-08T01:46:00.336Z,16.03
2019-06-08T01:47:00.324Z,16.02
2019-06-08T01:48:00.711Z,16.03
2019-06-08T01:49:01.188Z,16.03
2019-06-08T01:50:00.274Z,16.02
2019-06-08T01:51:00.290Z,16.01
2019-06-08T01:52:01.145Z,16.01
2019-06-08T01:53:00.379Z,16.00
2019-06-08T01:54:00.330Z,15.99
2019-06-08T01:55:00.226Z,15.98
2019-06-08T01:56:00.222Z,15.97
2019-06-08T01:57:00.342Z,15.97
2019-06-08T01:58:01.077Z,15.95
2019-06-08T01:59:00.171Z,15.93
2019-06-08T02:00:00.212Z,15.93
2019-06-08T02:01:00.166Z,15.91
2019-06-08T02:02:00.145Z,15.93
2019-06-08T02:03:00.163Z,15.91
2019-06-08T02:04:00.123Z,15.91
2019-06-08T02:05:01.086Z,15.90
2019-06-08T02:06:00.103Z,15.90
2019-06-08T02:07:00.154Z,15.88
2019-06-08T02:08:00.083Z,15.86
2019-06-08T02:09:00.492Z,15.85
2019-06-08T02:10:00.061Z,15.85
2019-06-08T02:11:00.043Z,15.84
2019-06-08T02:12:00.045Z,15.85
2019-06-08T02:13:00.732Z,15.86
2019-06-08T02:14:00.063Z,15.85
2019-06-08T02:15:00.052Z,15.85
2019-06-08T02:16:00.003Z,15.86
2019-06-08T02:16:59.994Z,15.86
2019-06-08T02:18:00.171Z,15.87
2019-06-08T02:18:59.964Z,15.87
2019-06-08T02:19:59.957Z,15.87
2019-06-08T02:21:01.059Z,15.89
2019-06-08T02:22:02.029Z,15.90
2019-06-08T02:23:00.190Z,15.91
2019-06-08T02:24:00.641Z,15.92
2019-06-08T02:24:59.940Z,15.92
2019-06-08T02:25:59.887Z,15.92
2019-06-08T02:27:00.011Z,15.92
2019-06-08T02:27:59.891Z,15.92
2019-06-08T02:28:59.855Z,15.93
2019-06-08T02:30:00.335Z,15.93
2019-06-08T02:30:59.834Z,15.95
2019-06-08T02:32:00.386Z,15.96
2019-06-08T02:32:59.836Z,15.97
2019-06-08T02:33:59.833Z,15.98
2019-06-08T02:34:59.976Z,15.98
2019-06-08T02:35:59.775Z,16.00
2019-06-08T02:37:00.331Z,16.01
2019-06-08T02:37:59.822Z,16.03
2019-06-08T02:39:01.185Z,16.07
2019-06-08T02:39:59.792Z,16.08
2019-06-08T02:40:59.744Z,16.11
2019-06-08T02:42:22.519Z,16.14
2019-06-08T02:42:59.923Z,16.18
2019-06-08T02:43:59.720Z,16.21
2019-06-08T02:45:00.569Z,16.21
2019-06-08T02:45:59.665Z,16.24
2019-06-08T02:46:59.664Z,16.25
2019-06-08T02:47:59.830Z,16.27
2019-06-08T02:49:04.527Z,16.27
2019-06-08T02:49:59.734Z,16.28
2019-06-08T02:50:59.728Z,16.29
2019-06-08T02:51:59.689Z,16.30
2019-06-08T02:52:59.713Z,16.31
2019-06-08T02:53:59.609Z,16.32
2019-06-08T02:54:59.697Z,16.33
2019-06-08T02:55:59.686Z,16.35
2019-06-08T02:56:59.663Z,16.37
2019-06-08T02:57:59.547Z,16.41
2019-06-08T02:58:59.583Z,16.42
2019-06-08T02:59:59.752Z,16.44
2019-06-08T03:00:59.609Z,16.46
2019-06-08T03:01:59.619Z,16.48
2019-06-08T03:02:59.642Z,16.49
2019-06-08T03:03:59.603Z,16.51
2019-06-08T03:04:59.546Z,16.51
2019-06-08T03:05:59.600Z,16.52
2019-06-08T03:06:59.525Z,16.52
2019-06-08T03:07:59.507Z,16.54
2019-06-08T03:08:59.467Z,16.54
2019-06-08T03:09:59.501Z,16.54
2019-06-08T03:10:59.454Z,16.55
2019-06-08T03:11:59.874Z,16.56
2019-06-08T03:12:59.495Z,16.56
2019-06-08T03:13:59.823Z,16.57
2019-06-08T03:14:59.408Z,16.59
2019-06-08T03:15:59.421Z,16.60
2019-06-08T03:16:59.506Z,16.60
2019-06-08T03:17:59.406Z,16.61
2019-06-08T03:18:59.445Z,16.61
2019-06-08T03:19:59.470Z,16.62
2019-06-08T03:20:59.328Z,16.62
2019-06-08T03:21:59.303Z,16.63
2019-06-08T03:22:59.392Z,16.62
2019-06-08T03:23:59.366Z,16.63
2019-06-08T03:24:59.367Z,16.63
2019-06-08T03:25:59.476Z,16.63
2019-06-08T03:26:59.291Z,16.64
2019-06-08T03:27:59.288Z,16.61
2019-06-08T03:28:59.286Z,16.62
2019-06-08T03:29:59.220Z,16.63
2019-06-08T03:30:59.249Z,16.62
2019-06-08T03:31:59.232Z,16.62
2019-06-08T03:32:59.333Z,16.62
2019-06-08T03:33:59.268Z,16.63
2019-06-08T03:34:59.284Z,16.63
2019-06-08T03:35:59.177Z,16.62
2019-06-08T03:36:59.240Z,16.62
2019-06-08T03:37:59.169Z,16.63
2019-06-08T03:38:59.205Z,16.64
2019-06-08T03:39:59.102Z,16.63
2019-06-08T03:40:59.128Z,16.66
2019-06-08T03:41:59.244Z,16.65
2019-06-08T03:43:01.439Z,16.66
2019-06-08T03:43:59.108Z,16.67
2019-06-08T03:44:59.164Z,16.67
2019-06-08T03:45:59.213Z,16.70
2019-06-08T03:46:59.053Z,16.71
2019-06-08T03:47:59.020Z,16.72
2019-06-08T03:48:59.015Z,16.73
2019-06-08T03:49:59.015Z,16.72
2019-06-08T03:50:59.095Z,16.73
2019-06-08T03:51:59.030Z,16.74
2019-06-08T03:52:58.946Z,16.75
2019-06-08T03:53:58.965Z,16.74
2019-06-08T03:54:58.972Z,16.75
2019-06-08T03:55:58.926Z,16.74
2019-06-08T03:56:58.984Z,16.74
2019-06-08T03:57:58.966Z,16.74
2019-06-08T03:58:58.961Z,16.73
2019-06-08T03:59:58.947Z,16.73
2019-06-08T04:00:58.926Z,16.73
2019-06-08T04:01:58.991Z,16.74
2019-06-08T04:02:58.988Z,16.75
2019-06-08T04:04:00.129Z,16.76
2019-06-08T04:04:58.908Z,16.75
2019-06-08T04:05:58.898Z,16.76
2019-06-08T04:06:58.933Z,16.75
2019-06-08T04:07:58.849Z,16.75
2019-06-08T04:08:58.981Z,16.74
2019-06-08T04:09:58.817Z,16.74
2019-06-08T04:10:58.750Z,16.72
2019-06-08T04:11:58.824Z,16.72
2019-06-08T04:12:58.780Z,16.71
2019-06-08T04:13:58.763Z,16.71
2019-06-08T04:14:58.752Z,16.72
2019-06-08T04:15:58.748Z,16.77
2019-06-08T04:16:58.744Z,16.78
2019-06-08T04:17:58.729Z,16.79
2019-06-08T04:18:58.694Z,16.79
2019-06-08T04:20:10.174Z,16.81
2019-06-08T04:20:59.798Z,16.79
2019-06-08T04:21:58.724Z,16.78
2019-06-08T04:22:58.699Z,16.77
2019-06-08T04:23:58.645Z,16.77
2019-06-08T04:24:58.740Z,16.77
2019-06-08T04:25:58.818Z,16.77
2019-06-08T04:26:58.760Z,16.75
2019-06-08T04:27:58.581Z,16.73
2019-06-08T04:28:58.629Z,16.73
2019-06-08T04:29:58.578Z,16.73
2019-06-08T04:30:58.581Z,16.74
2019-06-08T04:31:58.565Z,16.74
2019-06-08T04:32:58.629Z,16.72
2019-06-08T04:33:58.633Z,16.72
2019-06-08T04:34:58.496Z,16.71
2019-06-08T04:35:58.640Z,16.72
2019-06-08T04:36:58.487Z,16.72
2019-06-08T04:37:58.593Z,16.70
2019-06-08T04:38:58.653Z,16.69
2019-06-08T04:39:58.511Z,16.68
2019-06-08T04:40:58.516Z,16.69
2019-06-08T04:41:58.451Z,16.71
2019-06-08T04:42:58.498Z,16.75
2019-06-08T04:43:58.407Z,16.76
2019-06-08T04:44:58.663Z,16.75
2019-06-08T04:45:58.585Z,16.77
2019-06-08T04:46:58.431Z,16.79
2019-06-08T04:47:58.457Z,16.77
2019-06-08T04:48:58.368Z,16.77
2019-06-08T04:49:58.352Z,16.76
2019-06-08T04:50:58.428Z,16.78
2019-06-08T04:51:58.374Z,16.78
2019-06-08T04:52:58.371Z,16.80
2019-06-08T04:53:58.338Z,16.82
2019-06-08T04:54:58.485Z,16.79
2019-06-08T04:55:58.358Z,16.79
2019-06-08T04:56:58.346Z,16.76
2019-06-08T04:57:58.288Z,16.72
2019-06-08T04:58:58.271Z,16.70
2019-06-08T04:59:58.218Z,16.69
2019-06-08T05:00:58.357Z,16.69
2019-06-08T05:01:58.243Z,16.67
2019-06-08T05:02:58.320Z,16.67
2019-06-08T05:03:58.210Z,16.70
2019-06-08T05:04:58.245Z,16.71
2019-06-08T05:05:58.183Z,16.73
2019-06-08T05:06:58.240Z,16.76
2019-06-08T05:07:58.242Z,16.75
2019-06-08T05:08:58.169Z,16.75
2019-06-08T05:09:58.702Z,16.75
2019-06-08T05:10:58.351Z,16.76
2019-06-08T05:11:58.140Z,16.76
2019-06-08T05:12:58.101Z,16.77
2019-06-08T05:13:58.122Z,16.81
2019-06-08T05:14:58.105Z,16.81
2019-06-08T05:15:58.071Z,16.84
2019-06-08T05:16:58.034Z,16.90
2019-06-08T05:17:58.088Z,16.94
2019-06-08T05:18:58.236Z,16.95
2019-06-08T05:19:58.099Z,16.94
2019-06-08T05:20:58.004Z,16.89
2019-06-08T05:21:58.026Z,16.86
2019-06-08T05:22:58.051Z,16.84
2019-06-08T05:23:59.060Z,16.83
2019-06-08T05:24:58.068Z,16.84
2019-06-08T05:25:58.032Z,16.83
2019-06-08T05:26:57.990Z,16.81
2019-06-08T05:27:58.011Z,16.82
2019-06-08T05:28:57.961Z,16.82
2019-06-08T05:29:57.982Z,16.84
2019-06-08T05:30:58.012Z,16.89
2019-06-08T05:31:57.949Z,16.91
2019-06-08T05:32:57.941Z,16.92
2019-06-08T05:33:57.958Z,16.93
2019-06-08T05:34:57.907Z,16.96
2019-06-08T05:35:57.885Z,16.99
2019-06-08T05:36:58.028Z,17.04
2019-06-08T05:37:57.872Z,17.05
2019-06-08T05:38:57.940Z,17.12
2019-06-08T05:39:57.874Z,17.19
2019-06-08T05:40:57.827Z,17.27
2019-06-08T05:41:57.854Z,17.28
2019-06-08T05:42:57.993Z,17.33
2019-06-08T05:43:57.761Z,17.35
2019-06-08T05:44:57.838Z,17.36
2019-06-08T05:45:57.761Z,17.41
2019-06-08T05:46:57.745Z,17.47
2019-06-08T05:47:57.761Z,17.54
2019-06-08T05:48:57.849Z,17.55
2019-06-08T05:49:57.751Z,17.55
2019-06-08T05:51:03.886Z,17.52
2019-06-08T05:51:58.661Z,17.50
2019-06-08T05:52:57.685Z,17.53
2019-06-08T05:53:57.640Z,17.62
2019-06-08T05:54:57.651Z,17.80
2019-06-08T05:55:57.785Z,17.99
2019-06-08T05:56:57.755Z,18.16
2019-06-08T05:57:57.627Z,18.36
2019-06-08T05:58:57.646Z,18.51
2019-06-08T05:59:57.650Z,18.55
2019-06-08T06:00:57.755Z,18.47
2019-06-08T06:01:57.597Z,18.38
2019-06-08T06:02:57.741Z,18.33
2019-06-08T06:03:57.550Z,18.24
2019-06-08T06:04:57.685Z,18.19
2019-06-08T06:05:57.679Z,18.16
2019-06-08T06:06:57.759Z,18.16
2019-06-08T06:07:57.574Z,18.22
2019-06-08T06:08:57.654Z,18.25
2019-06-08T06:09:57.534Z,18.32
2019-06-08T06:10:57.560Z,18.39
2019-06-08T06:11:57.478Z,18.43
2019-06-08T06:12:57.530Z,18.48
2019-06-08T06:13:57.473Z,18.53
2019-06-08T06:14:57.533Z,18.69
2019-06-08T06:15:57.515Z,18.89
2019-06-08T06:16:57.473Z,19.03
2019-06-08T06:17:57.441Z,19.15
2019-06-08T06:18:57.549Z,19.34
2019-06-08T06:19:57.477Z,19.49
2019-06-08T06:21:10.552Z,19.55
2019-06-08T06:21:58.335Z,19.54
2019-06-08T06:22:58.587Z,19.56
2019-06-08T06:23:57.311Z,19.59
2019-06-08T06:24:57.461Z,19.67
2019-06-08T06:25:57.323Z,19.80
2019-06-08T06:26:57.299Z,19.97
2019-06-08T06:27:58.239Z,20.05
2019-06-08T06:28:57.348Z,20.16
2019-06-08T06:29:57.311Z,20.23
2019-06-08T06:30:57.298Z,20.32
2019-06-08T06:31:57.202Z,20.41
2019-06-08T06:32:57.868Z,20.76
2019-06-08T06:33:57.389Z,21.16
2019-06-08T06:34:57.292Z,21.50
2019-06-08T06:35:57.332Z,21.58
2019-06-08T06:36:57.564Z,21.60
2019-06-08T06:37:57.179Z,21.64
2019-06-08T06:38:57.216Z,21.73
2019-06-08T06:39:57.401Z,21.76
2019-06-08T06:40:57.307Z,21.93
2019-06-08T06:41:57.190Z,22.00
2019-06-08T06:42:57.113Z,21.88
2019-06-08T06:43:57.200Z,21.69
2019-06-08T06:44:57.153Z,21.79
2019-06-08T06:45:57.270Z,21.77
2019-06-08T06:46:57.202Z,21.69
2019-06-08T06:47:57.119Z,21.64
2019-06-08T06:48:57.433Z,21.52
2019-06-08T06:49:57.061Z,21.31
2019-06-08T06:50:57.013Z,21.15
2019-06-08T06:51:57.040Z,21.03
2019-06-08T06:52:57.057Z,20.96
2019-06-08T06:53:57.156Z,21.05
2019-06-08T06:54:56.985Z,21.26
2019-06-08T06:55:57.485Z,21.37
2019-06-08T06:56:57.016Z,21.43
2019-06-08T06:57:56.984Z,21.53
2019-06-08T06:58:56.998Z,21.94
2019-06-08T06:59:57.236Z,22.47
2019-06-08T07:00:56.909Z,22.42
2019-06-08T07:01:57.608Z,22.04
2019-06-08T07:02:56.898Z,21.81
2019-06-08T07:03:57.073Z,21.61
2019-06-08T07:04:56.896Z,21.41
2019-06-08T07:05:56.972Z,21.34
2019-06-08T07:06:56.896Z,21.39
2019-06-08T07:07:56.884Z,21.54
2019-06-08T07:08:56.843Z,21.67
2019-06-08T07:09:56.875Z,21.72
2019-06-08T07:10:56.861Z,21.72
2019-06-08T07:11:56.863Z,21.86
2019-06-08T07:12:56.938Z,22.01
2019-06-08T07:13:56.789Z,22.10
2019-06-08T07:14:56.853Z,22.12
2019-06-08T07:15:58.214Z,22.33
2019-06-08T07:16:58.227Z,22.48
2019-06-08T07:17:56.848Z,22.32
2019-06-08T07:18:58.787Z,22.05
2019-06-08T07:19:56.824Z,21.92
2019-06-08T07:20:56.717Z,22.09
2019-06-08T07:21:56.832Z,22.51
2019-06-08T07:22:56.696Z,22.74
2019-06-08T07:23:56.666Z,22.71
2019-06-08T07:24:56.699Z,22.70
2019-06-08T07:25:56.772Z,23.06
2019-06-08T07:26:56.689Z,23.56
2019-06-08T07:27:56.776Z,23.95
2019-06-08T07:28:56.809Z,24.30
2019-06-08T07:29:56.863Z,24.54
2019-06-08T07:30:56.580Z,24.65
2019-06-08T07:31:56.679Z,24.52
2019-06-08T07:32:56.753Z,24.21
2019-06-08T07:33:56.592Z,24.36
2019-06-08T07:34:56.619Z,24.58
2019-06-08T07:35:56.674Z,24.83
2019-06-08T07:36:56.737Z,24.80
2019-06-08T07:37:56.910Z,24.93
2019-06-08T07:38:56.635Z,24.96
2019-06-08T07:39:56.564Z,24.73
2019-06-08T07:40:59.629Z,24.62
2019-06-08T07:41:56.569Z,24.67
2019-06-08T07:42:57.241Z,24.65
2019-06-08T07:43:56.616Z,24.37
2019-06-08T07:44:56.531Z,24.19
2019-06-08T07:45:56.438Z,24.15
2019-06-08T07:46:56.423Z,24.07
2019-06-08T07:47:56.505Z,24.21
2019-06-08T07:48:58.525Z,24.43
2019-06-08T07:49:56.359Z,24.55
2019-06-08T07:50:56.559Z,24.59
2019-06-08T07:52:06.696Z,24.47
2019-06-08T07:52:58.767Z,24.36
2019-06-08T07:53:56.543Z,24.46
2019-06-08T07:54:57.072Z,24.97
2019-06-08T07:55:56.427Z,25.70
2019-06-08T07:56:57.088Z,26.37
2019-06-08T07:57:56.459Z,26.75
2019-06-08T07:58:57.167Z,26.80
2019-06-08T08:00:00.095Z,26.69
2019-06-08T08:01:03.664Z,26.67
2019-06-08T08:01:58.334Z,26.76
2019-06-08T08:02:56.347Z,26.90
2019-06-08T08:03:58.433Z,26.96
2019-06-08T08:04:56.730Z,26.93
2019-06-08T08:05:56.738Z,26.79
2019-06-08T08:06:56.773Z,26.92
2019-06-08T08:07:56.918Z,26.94
2019-06-08T08:08:56.836Z,26.72
2019-06-08T08:09:56.982Z,26.46
2019-06-08T08:10:56.698Z,26.43
2019-06-08T08:11:57.157Z,26.48
2019-06-08T08:12:56.828Z,26.62
2019-06-08T08:13:57.444Z,26.71
2019-06-08T08:14:57.871Z,26.83
2019-06-08T08:15:58.611Z,26.94
2019-06-08T08:16:57.193Z,26.83
2019-06-08T08:17:57.562Z,26.40
2019-06-08T08:18:57.619Z,25.86
2019-06-08T08:19:57.280Z,25.20
2019-06-08T08:20:59.217Z,24.52
2019-06-08T08:22:00.105Z,24.00
2019-06-08T08:23:03.594Z,23.72
2019-06-08T08:23:59.650Z,23.56
2019-06-08T08:25:02.297Z,23.51
2019-06-08T08:26:01.293Z,23.55
2019-06-08T08:26:59.755Z,23.77
2019-06-08T08:27:59.059Z,23.97
2019-06-08T08:28:59.714Z,24.00
2019-06-08T08:29:59.756Z,24.07
2019-06-08T08:30:58.561Z,23.99
2019-06-08T08:31:58.793Z,23.84
2019-06-08T08:32:57.127Z,23.89
2019-06-08T08:33:58.891Z,24.12
2019-06-08T08:34:59.233Z,24.37
2019-06-08T08:35:59.798Z,24.61
2019-06-08T08:37:01.794Z,24.97
2019-06-08T08:38:01.193Z,25.60
2019-06-08T08:39:00.457Z,25.71
2019-06-08T08:39:59.669Z,25.70
2019-06-08T08:40:59.345Z,25.81
2019-06-08T08:42:02.415Z,26.72
2019-06-08T08:42:58.698Z,30.77
2019-06-08T08:43:58.969Z,30.76
2019-06-08T08:44:59.336Z,29.41
2019-06-08T08:45:59.140Z,28.88
2019-06-08T08:46:56.995Z,33.73
2019-06-08T08:48:16.031Z,34.11
2019-06-08T08:49:06.906Z,31.98
2019-06-08T08:49:59.119Z,31.37
2019-06-08T08:50:56.951Z,31.12
2019-06-08T08:51:56.182Z,30.72
2019-06-08T08:52:58.916Z,30.77
2019-06-08T08:54:01.459Z,29.49
2019-06-08T08:54:59.331Z,28.53
2019-06-08T08:56:01.280Z,27.77
2019-06-08T08:57:01.065Z,27.23
2019-06-08T08:57:59.031Z,27.23
2019-06-08T08:58:59.171Z,27.24
2019-06-08T09:00:01.101Z,27.18
2019-06-08T09:00:59.440Z,26.84
2019-06-08T09:01:56.865Z,26.86
2019-06-08T09:03:13.166Z,26.95
2019-06-08T09:04:01.155Z,26.96
2019-06-08T09:04:59.674Z,27.06
2019-06-08T09:06:00.552Z,27.10
2019-06-08T09:07:02.355Z,26.99
2019-06-08T09:07:58.771Z,26.65
2019-06-08T09:08:59.536Z,26.53
2019-06-08T09:10:00.479Z,26.71
2019-06-08T09:10:59.704Z,26.86
2019-06-08T09:12:00.899Z,27.30
2019-06-08T09:12:59.985Z,27.62
2019-06-08T09:14:01.417Z,27.46
2019-06-08T09:14:59.701Z,27.68
2019-06-08T09:15:55.833Z,28.89
2019-06-08T09:16:57.855Z,32.90
2019-06-08T09:17:56.482Z,35.22
2019-06-08T09:18:55.843Z,35.91
2019-06-08T09:19:58.176Z,37.73
2019-06-08T09:20:56.615Z,40.99
2019-06-08T09:21:58.974Z,44.46
2019-06-08T09:23:03.851Z,43.27
2019-06-08T09:23:58.815Z,40.73
2019-06-08T09:24:56.889Z,38.47
2019-06-08T09:26:00.438Z,39.41
2019-06-08T09:27:00.076Z,38.53
2019-06-08T09:27:57.125Z,42.00
2019-06-08T09:28:56.205Z,44.86
2019-06-08T09:29:57.464Z,41.62
2019-06-08T09:30:56.730Z,42.95
2019-06-08T09:31:58.145Z,39.06
2019-06-08T09:32:57.175Z,43.26
2019-06-08T09:33:59.512Z,44.78
2019-06-08T09:34:59.601Z,43.33
2019-06-08T09:35:59.923Z,43.31
2019-06-08T09:36:59.649Z,41.73
2019-06-08T09:37:59.447Z,40.37
2019-06-08T09:38:59.663Z,41.89
2019-06-08T09:39:58.512Z,42.72
2019-06-08T09:40:57.451Z,43.05
2019-06-08T09:41:58.188Z,44.32
2019-06-08T09:43:05.378Z,40.32
2019-06-08T09:43:58.171Z,41.26
2019-06-08T09:44:55.595Z,45.76
2019-06-08T09:45:55.421Z,48.62
2019-06-08T09:46:56.367Z,49.40
2019-06-08T09:47:55.482Z,51.17
2019-06-08T09:48:58.384Z,48.27
2019-06-08T09:49:55.439Z,45.01
2019-06-08T09:50:55.172Z,40.95
2019-06-08T09:51:56.500Z,38.25
2019-06-08T09:53:10.123Z,36.54
2019-06-08T09:54:00.616Z,35.96
2019-06-08T09:54:59.276Z,35.41
2019-06-08T09:55:57.608Z,34.22
2019-06-08T09:56:55.801Z,36.74
2019-06-08T09:57:59.298Z,37.30
2019-06-08T09:58:58.065Z,35.59
2019-06-08T09:59:57.178Z,34.31
2019-06-08T10:00:57.199Z,33.36
2019-06-08T10:01:55.616Z,32.37
2019-06-08T10:02:56.840Z,31.63
2019-06-08T10:03:56.131Z,31.17
2019-06-08T10:04:58.887Z,30.96
2019-06-08T10:05:56.166Z,30.71
2019-06-08T10:06:56.202Z,30.63
2019-06-08T10:07:56.959Z,30.17
2019-06-08T10:08:56.240Z,29.52
2019-06-08T10:09:56.835Z,28.78
2019-06-08T10:10:56.561Z,27.85
2019-06-08T10:11:56.222Z,27.02
2019-06-08T10:12:56.949Z,26.40
2019-06-08T10:13:57.057Z,25.88
2019-06-08T10:14:56.623Z,25.43
2019-06-08T10:15:56.092Z,25.06
2019-06-08T10:16:56.278Z,24.56
2019-06-08T10:17:54.935Z,24.21
2019-06-08T10:18:55.024Z,23.90
2019-06-08T10:19:57.904Z,23.60
2019-06-08T10:21:00.667Z,23.45
2019-06-08T10:21:54.867Z,23.28
2019-06-08T10:22:54.890Z,23.22
2019-06-08T10:23:54.859Z,23.18
2019-06-08T10:24:55.490Z,23.21
2019-06-08T10:25:54.885Z,23.24
2019-06-08T10:26:55.182Z,23.11
2019-06-08T10:27:55.131Z,22.86
2019-06-08T10:28:55.322Z,22.82
2019-06-08T10:29:55.197Z,23.04
2019-06-08T10:30:55.408Z,23.52
2019-06-08T10:31:55.184Z,24.16
2019-06-08T10:32:56.270Z,24.58
2019-06-08T10:33:56.205Z,24.88
2019-06-08T10:34:55.650Z,25.07
2019-06-08T10:35:55.703Z,24.97
2019-06-08T10:36:57.995Z,24.97
2019-06-08T10:37:56.549Z,25.35
2019-06-08T10:38:56.711Z,25.92
2019-06-08T10:39:55.772Z,26.36
2019-06-08T10:40:58.744Z,26.59
2019-06-08T10:41:57.596Z,26.72
2019-06-08T10:42:54.492Z,26.61
2019-06-08T10:43:54.516Z,26.46
2019-06-08T10:44:54.522Z,26.48
2019-06-08T10:45:54.503Z,26.52
2019-06-08T10:46:54.580Z,26.68
2019-06-08T10:47:54.702Z,26.74
2019-06-08T10:48:54.599Z,26.59
2019-06-08T10:49:54.571Z,26.45
2019-06-08T10:50:54.471Z,26.05
2019-06-08T10:51:54.534Z,25.70
2019-06-08T10:52:54.465Z,25.96
2019-06-08T10:53:54.423Z,28.68
2019-06-08T10:54:54.386Z,27.73
2019-06-08T10:55:54.402Z,26.77
2019-06-08T10:56:54.486Z,26.12
2019-06-08T10:57:54.905Z,25.96
2019-06-08T10:58:54.955Z,26.17
2019-06-08T10:59:54.454Z,26.28
2019-06-08T11:00:55.272Z,26.43
2019-06-08T11:01:54.652Z,26.68
2019-06-08T11:02:54.770Z,26.45
2019-06-08T11:03:54.325Z,25.86
2019-06-08T11:04:54.458Z,25.45
2019-06-08T11:05:54.561Z,25.37
2019-06-08T11:06:54.315Z,25.74
2019-06-08T11:07:54.334Z,26.17
2019-06-08T11:08:55.044Z,26.31
2019-06-08T11:09:54.258Z,26.57
2019-06-08T11:10:54.328Z,27.55
2019-06-08T11:11:54.188Z,28.43
2019-06-08T11:12:54.263Z,27.94
2019-06-08T11:13:54.247Z,27.14
2019-06-08T11:14:54.182Z,26.63
2019-06-08T11:15:54.155Z,26.44
2019-06-08T11:16:54.562Z,26.74
2019-06-08T11:17:54.214Z,27.10
2019-06-08T11:18:54.359Z,27.45
2019-06-08T11:19:54.156Z,28.23
2019-06-08T11:20:57.978Z,29.22
2019-06-08T11:21:54.141Z,31.37
2019-06-08T11:22:54.652Z,32.02
2019-06-08T11:24:07.617Z,35.52
2019-06-08T11:24:55.167Z,36.89
2019-06-08T11:25:54.240Z,35.05
2019-06-08T11:26:54.230Z,34.93
2019-06-08T11:27:55.087Z,33.68
2019-06-08T11:28:54.126Z,32.63
2019-06-08T11:29:54.101Z,31.54
2019-06-08T11:30:54.006Z,30.37
2019-06-08T11:31:54.123Z,29.43
2019-06-08T11:32:54.339Z,28.87
2019-06-08T11:33:54.057Z,28.74
2019-06-08T11:34:54.093Z,28.64
2019-06-08T11:35:53.969Z,28.82
2019-06-08T11:36:54.031Z,29.60
2019-06-08T11:37:54.625Z,31.24
2019-06-08T11:38:54.161Z,31.88
2019-06-08T11:39:54.076Z,32.50
2019-06-08T11:40:53.948Z,31.99
2019-06-08T11:41:54.263Z,31.12
2019-06-08T11:42:53.859Z,30.43
2019-06-08T11:43:53.890Z,30.52
2019-06-08T11:44:53.860Z,30.44
2019-06-08T11:45:53.916Z,30.31
2019-06-08T11:46:53.954Z,32.61
2019-06-08T11:47:53.865Z,35.69
2019-06-08T11:48:54.539Z,37.83
2019-06-08T11:49:53.943Z,35.23
2019-06-08T11:50:53.893Z,32.91
2019-06-08T11:51:54.015Z,30.94
2019-06-08T11:52:53.744Z,29.43
2019-06-08T11:53:53.734Z,28.32
2019-06-08T11:54:53.819Z,27.70
2019-06-08T11:55:53.804Z,27.16
2019-06-08T11:56:53.757Z,26.37
2019-06-08T11:57:53.711Z,25.78
2019-06-08T11:58:53.772Z,25.66
2019-06-08T11:59:53.705Z,26.14
2019-06-08T12:00:53.795Z,27.21
2019-06-08T12:01:53.642Z,30.70
2019-06-08T12:02:53.640Z,30.16
2019-06-08T12:03:53.696Z,29.76
2019-06-08T12:04:53.676Z,29.59
2019-06-08T12:05:53.685Z,30.25
2019-06-08T12:06:53.786Z,32.14
2019-06-08T12:07:53.629Z,32.28
2019-06-08T12:08:53.616Z,32.31
2019-06-08T12:09:53.834Z,31.84
2019-06-08T12:10:53.588Z,31.43
2019-06-08T12:11:53.619Z,31.05
2019-06-08T12:12:53.537Z,30.57
2019-06-08T12:13:53.648Z,30.00
2019-06-08T12:14:53.541Z,29.44
2019-06-08T12:15:53.492Z,29.19
2019-06-08T12:16:53.804Z,29.24
2019-06-08T12:17:53.727Z,29.31
2019-06-08T12:18:53.471Z,29.23
2019-06-08T12:19:53.562Z,29.28
2019-06-08T12:20:53.663Z,29.09
2019-06-08T12:21:53.470Z,28.35
2019-06-08T12:22:54.161Z,27.85
2019-06-08T12:23:53.873Z,27.41
2019-06-08T12:24:53.702Z,27.72
2019-06-08T12:25:53.377Z,27.47
2019-06-08T12:26:59.937Z,27.03
2019-06-08T12:27:54.392Z,26.57
2019-06-08T12:28:53.468Z,26.08
2019-06-08T12:29:53.425Z,25.45
2019-06-08T12:30:53.338Z,24.79
2019-06-08T12:31:53.305Z,24.30
2019-06-08T12:32:53.338Z,24.00
2019-06-08T12:33:53.365Z,23.92
2019-06-08T12:34:53.338Z,24.17
2019-06-08T12:35:53.779Z,24.70
2019-06-08T12:36:54.916Z,25.97
2019-06-08T12:37:53.313Z,28.58
2019-06-08T12:38:53.295Z,28.07
2019-06-08T12:39:54.266Z,27.68
2019-06-08T12:40:53.320Z,27.14
2019-06-08T12:41:53.274Z,26.57
2019-06-08T12:42:53.174Z,26.24
2019-06-08T12:43:53.254Z,26.51
2019-06-08T12:44:53.154Z,27.96
2019-06-08T12:45:53.138Z,32.32
2019-06-08T12:46:53.211Z,33.50
2019-06-08T12:47:53.347Z,40.09
2019-06-08T12:48:53.141Z,39.82
2019-06-08T12:49:53.112Z,38.98
2019-06-08T12:50:53.096Z,38.40
2019-06-08T12:51:53.108Z,36.81